sensor_id;sensor_type;location;lat;lon;timestamp;pressure;altitude;pressure_sealevel;temperature;humidity
13013;BME280;22580;57.670;12.006;2023-05-20T00:01:09;102883.97;;;21.36;55.34
13013;BME280;22580;57.670;12.006;2023-05-20T00:03:36;102844.16;;;21.35;55.79
13013;BME280;22580;57.670;12.006;2023-05-20T00:06:03;102875.41;;;21.72;54.35
13013;BME280;22580;57.670;12.006;2023-05-20T00:08:34;102888.25;;;21.81;54.14
13013;BME280;22580;57.670;12.006;2023-05-20T00:11:03;102899.16;;;21.81;53.99
13013;BME280;22580;57.670;12.006;2023-05-20T00:13:30;102909.34;;;21.68;54.91
13013;BME280;22580;57.670;12.006;2023-05-20T00:16:00;102887.63;;;21.57;54.97
13013;BME280;22580;57.670;12.006;2023-05-20T00:18:27;102887.25;;;21.82;54.28
13013;BME280;22580;57.670;12.006;2023-05-20T00:20:54;102891.25;;;21.46;55.05
13013;BME280;22580;57.670;12.006;2023-05-20T00:23:27;102855.19;;;21.22;55.55
13013;BME280;22580;57.670;12.006;2023-05-20T00:26:01;102882.97;;;21.48;55.39
13013;BME280;22580;57.670;12.006;2023-05-20T00:28:28;102867.66;;;21.36;55.00
13013;BME280;22580;57.670;12.006;2023-05-20T00:30:55;102896.03;;;21.65;54.69
13013;BME280;22580;57.670;12.006;2023-05-20T00:33:22;102899.19;;;21.38;55.50
13013;BME280;22580;57.670;12.006;2023-05-20T00:35:49;102858.13;;;21.19;55.41
13013;BME280;22580;57.670;12.006;2023-05-20T00:38:16;102887.59;;;21.25;55.91
13013;BME280;22580;57.670;12.006;2023-05-20T00:40:43;102910.81;;;21.29;55.89
13013;BME280;22580;57.670;12.006;2023-05-20T00:43:11;102901.41;;;21.11;56.23
13013;BME280;22580;57.670;12.006;2023-05-20T00:45:38;102903.16;;;20.89;56.58
13013;BME280;22580;57.670;12.006;2023-05-20T00:48:06;102897.59;;;21.13;56.62
13013;BME280;22580;57.670;12.006;2023-05-20T00:50:34;102904.00;;;21.12;56.38
13013;BME280;22580;57.670;12.006;2023-05-20T00:53:02;102886.72;;;21.02;56.64
13013;BME280;22580;57.670;12.006;2023-05-20T00:55:29;102865.59;;;20.94;56.32
13013;BME280;22580;57.670;12.006;2023-05-20T00:57:56;102878.47;;;20.70;56.78
13013;BME280;22580;57.670;12.006;2023-05-20T01:00:24;102854.13;;;20.46;57.12
13013;BME280;22580;57.670;12.006;2023-05-20T01:02:52;102871.47;;;20.33;58.36
13013;BME280;22580;57.670;12.006;2023-05-20T01:05:21;102914.06;;;20.67;58.14
13013;BME280;22580;57.670;12.006;2023-05-20T01:07:48;102908.34;;;20.48;59.06
13013;BME280;22580;57.670;12.006;2023-05-20T01:10:15;102907.50;;;20.70;58.53
13013;BME280;22580;57.670;12.006;2023-05-20T01:12:47;102904.41;;;20.85;57.46
13013;BME280;22580;57.670;12.006;2023-05-20T01:15:14;102897.59;;;20.91;56.87
13013;BME280;22580;57.670;12.006;2023-05-20T01:17:48;102886.13;;;20.76;57.11
13013;BME280;22580;57.670;12.006;2023-05-20T01:20:16;102859.28;;;20.38;57.51
13013;BME280;22580;57.670;12.006;2023-05-20T01:22:52;102896.22;;;20.41;59.24
13013;BME280;22580;57.670;12.006;2023-05-20T01:25:19;102866.47;;;20.61;57.76
13013;BME280;22580;57.670;12.006;2023-05-20T01:27:47;102851.78;;;20.53;57.57
13013;BME280;22580;57.670;12.006;2023-05-20T01:30:14;102876.13;;;20.66;57.35
13013;BME280;22580;57.670;12.006;2023-05-20T01:32:43;102892.31;;;20.78;57.21
13013;BME280;22580;57.670;12.006;2023-05-20T01:35:13;102888.09;;;20.63;57.70
13013;BME280;22580;57.670;12.006;2023-05-20T01:37:42;102874.00;;;20.47;57.70
13013;BME280;22580;57.670;12.006;2023-05-20T01:40:13;102860.03;;;20.40;57.81
13013;BME280;22580;57.670;12.006;2023-05-20T01:42:42;102890.81;;;20.74;56.64
13013;BME280;22580;57.670;12.006;2023-05-20T01:45:12;102875.84;;;20.91;55.58
13013;BME280;22580;57.670;12.006;2023-05-20T01:47:39;102851.66;;;20.77;55.04
13013;BME280;22580;57.670;12.006;2023-05-20T01:50:07;102880.16;;;20.82;55.18
13013;BME280;22580;57.670;12.006;2023-05-20T01:52:34;102911.94;;;20.71;55.39
13013;BME280;22580;57.670;12.006;2023-05-20T01:55:01;102854.38;;;20.43;55.33
13013;BME280;22580;57.670;12.006;2023-05-20T01:57:30;102890.78;;;20.97;54.54
13013;BME280;22580;57.670;12.006;2023-05-20T01:59:57;102889.81;;;21.09;53.74
13013;BME280;22580;57.670;12.006;2023-05-20T02:02:24;102913.16;;;21.11;53.82
13013;BME280;22580;57.670;12.006;2023-05-20T02:04:53;102913.53;;;20.95;54.35
13013;BME280;22580;57.670;12.006;2023-05-20T02:07:20;102909.59;;;20.55;55.87
13013;BME280;22580;57.670;12.006;2023-05-20T02:09:47;102875.34;;;20.41;55.64
13013;BME280;22580;57.670;12.006;2023-05-20T02:12:14;102898.59;;;20.90;54.83
13013;BME280;22580;57.670;12.006;2023-05-20T02:14:44;102918.25;;;20.93;55.16
13013;BME280;22580;57.670;12.006;2023-05-20T02:17:12;102910.81;;;20.95;54.44
13013;BME280;22580;57.670;12.006;2023-05-20T02:19:40;102905.91;;;20.78;54.60
13013;BME280;22580;57.670;12.006;2023-05-20T02:22:07;102879.69;;;20.44;55.76
13013;BME280;22580;57.670;12.006;2023-05-20T02:24:34;102899.59;;;20.55;55.82
13013;BME280;22580;57.670;12.006;2023-05-20T02:27:01;102860.94;;;20.17;56.23
13013;BME280;22580;57.670;12.006;2023-05-20T02:29:29;102886.88;;;20.21;56.98
13013;BME280;22580;57.670;12.006;2023-05-20T02:31:57;102892.75;;;20.39;56.72
13013;BME280;22580;57.670;12.006;2023-05-20T02:34:24;102918.13;;;20.73;56.26
13013;BME280;22580;57.670;12.006;2023-05-20T02:36:51;102894.16;;;20.78;55.58
13013;BME280;22580;57.670;12.006;2023-05-20T02:39:18;102909.59;;;20.55;55.68
13013;BME280;22580;57.670;12.006;2023-05-20T02:41:45;102902.91;;;20.48;55.77
13013;BME280;22580;57.670;12.006;2023-05-20T02:44:12;102876.91;;;20.33;55.63
13013;BME280;22580;57.670;12.006;2023-05-20T02:46:39;102887.03;;;20.30;55.60
13013;BME280;22580;57.670;12.006;2023-05-20T02:49:08;102922.94;;;20.58;55.42
13013;BME280;22580;57.670;12.006;2023-05-20T02:51:35;102927.13;;;20.62;55.37
13013;BME280;22580;57.670;12.006;2023-05-20T02:54:02;102865.81;;;20.36;55.05
13013;BME280;22580;57.670;12.006;2023-05-20T02:56:30;102910.72;;;20.75;54.57
13013;BME280;22580;57.670;12.006;2023-05-20T02:58:58;102913.78;;;20.48;55.42
13013;BME280;22580;57.670;12.006;2023-05-20T03:01:25;102905.78;;;20.22;56.13
13013;BME280;22580;57.670;12.006;2023-05-20T03:03:53;102887.03;;;20.30;55.51
13013;BME280;22580;57.670;12.006;2023-05-20T03:06:21;102869.72;;;20.20;55.16
13013;BME280;22580;57.670;12.006;2023-05-20T03:08:48;102913.44;;;20.28;55.84
13013;BME280;22580;57.670;12.006;2023-05-20T03:11:16;102906.63;;;20.58;55.09
13013;BME280;22580;57.670;12.006;2023-05-20T03:13:43;102887.94;;;20.42;54.85
13013;BME280;22580;57.670;12.006;2023-05-20T03:16:09;102916.50;;;20.59;54.67
13013;BME280;22580;57.670;12.006;2023-05-20T03:18:38;102933.41;;;20.51;54.70
13013;BME280;22580;57.670;12.006;2023-05-20T03:21:05;102931.25;;;20.33;55.17
13013;BME280;22580;57.670;12.006;2023-05-20T03:23:34;102881.84;;;19.81;56.21
13013;BME280;22580;57.670;12.006;2023-05-20T03:26:01;102902.88;;;20.02;56.37
13013;BME280;22580;57.670;12.006;2023-05-20T03:28:28;102896.00;;;20.20;55.91
13013;BME280;22580;57.670;12.006;2023-05-20T03:30:55;102924.41;;;20.51;55.03
13013;BME280;22580;57.670;12.006;2023-05-20T03:33:22;102915.97;;;20.43;55.01
13013;BME280;22580;57.670;12.006;2023-05-20T03:35:50;102923.78;;;20.47;54.72
13013;BME280;22580;57.670;12.006;2023-05-20T03:38:17;102889.75;;;20.30;55.17
13013;BME280;22580;57.670;12.006;2023-05-20T03:40:45;102928.09;;;20.50;55.38
13013;BME280;22580;57.670;12.006;2023-05-20T03:43:12;102922.78;;;20.48;55.13
13013;BME280;22580;57.670;12.006;2023-05-20T03:45:39;102928.47;;;20.45;55.61
13013;BME280;22580;57.670;12.006;2023-05-20T03:48:06;102893.19;;;20.21;55.95
13013;BME280;22580;57.670;12.006;2023-05-20T03:50:33;102886.78;;;20.34;55.64
13013;BME280;22580;57.670;12.006;2023-05-20T03:53:00;102912.81;;;20.60;56.03
13013;BME280;22580;57.670;12.006;2023-05-20T03:55:27;102914.41;;;20.63;55.39
13013;BME280;22580;57.670;12.006;2023-05-20T03:57:56;102874.13;;;20.56;54.96
13013;BME280;22580;57.670;12.006;2023-05-20T04:00:23;102911.81;;;20.94;53.88
13013;BME280;22580;57.670;12.006;2023-05-20T04:02:50;102899.06;;;20.84;53.42
13013;BME280;22580;57.670;12.006;2023-05-20T04:05:17;102905.38;;;20.84;53.59
13013;BME280;22580;57.670;12.006;2023-05-20T04:07:44;102914.78;;;21.03;52.78
13013;BME280;22580;57.670;12.006;2023-05-20T04:10:11;102888.81;;;21.10;51.88
13013;BME280;22580;57.670;12.006;2023-05-20T04:12:38;102871.63;;;20.98;51.92
13013;BME280;22580;57.670;12.006;2023-05-20T04:15:08;102870.88;;;21.07;51.64
13013;BME280;22580;57.670;12.006;2023-05-20T04:17:36;102918.09;;;21.40;52.00
13013;BME280;22580;57.670;12.006;2023-05-20T04:20:06;102912.94;;;21.69;50.79
13013;BME280;22580;57.670;12.006;2023-05-20T04:22:34;102915.09;;;21.86;49.95
13013;BME280;22580;57.670;12.006;2023-05-20T04:27:29;102905.06;;;21.86;49.46
13013;BME280;22580;57.670;12.006;2023-05-20T04:29:56;102855.97;;;21.77;49.13
13013;BME280;22580;57.670;12.006;2023-05-20T04:32:24;102866.00;;;21.76;48.98
13013;BME280;22580;57.670;12.006;2023-05-20T04:34:52;102909.66;;;21.86;49.57
13013;BME280;22580;57.670;12.006;2023-05-20T04:37:20;102888.19;;;21.29;51.69
13013;BME280;22580;57.670;12.006;2023-05-20T04:39:47;102914.84;;;21.89;51.25
13013;BME280;22580;57.670;12.006;2023-05-20T04:42:17;102882.78;;;21.61;52.14
13013;BME280;22580;57.670;12.006;2023-05-20T04:44:55;102859.72;;;21.44;52.56
13013;BME280;22580;57.670;12.006;2023-05-20T04:47:26;102892.88;;;21.15;53.81
13013;BME280;22580;57.670;12.006;2023-05-20T04:49:53;102906.84;;;21.76;53.29
13013;BME280;22580;57.670;12.006;2023-05-20T04:52:22;102913.41;;;21.74;53.26
13013;BME280;22580;57.670;12.006;2023-05-20T04:54:50;102904.94;;;21.88;52.87
13013;BME280;22580;57.670;12.006;2023-05-20T04:57:17;102866.13;;;21.75;52.52
13013;BME280;22580;57.670;12.006;2023-05-20T04:59:50;102888.94;;;21.31;54.92
13013;BME280;22580;57.670;12.006;2023-05-20T05:02:18;102919.34;;;21.79;54.13
13013;BME280;22580;57.670;12.006;2023-05-20T05:04:46;102906.09;;;21.42;54.65
13013;BME280;22580;57.670;12.006;2023-05-20T05:07:16;102922.03;;;21.58;54.74
13013;BME280;22580;57.670;12.006;2023-05-20T05:09:43;102883.84;;;22.01;52.94
13013;BME280;22580;57.670;12.006;2023-05-20T05:12:12;102896.59;;;21.37;55.32
13013;BME280;22580;57.670;12.006;2023-05-20T05:14:39;102874.50;;;21.62;55.29
13013;BME280;22580;57.670;12.006;2023-05-20T05:17:08;102873.03;;;21.58;55.33
13013;BME280;22580;57.670;12.006;2023-05-20T05:19:41;102873.72;;;21.17;57.65
13013;BME280;22580;57.670;12.006;2023-05-20T05:22:16;102893.28;;;21.00;58.03
13013;BME280;22580;57.670;12.006;2023-05-20T05:24:43;102913.31;;;20.76;59.63
13013;BME280;22580;57.670;12.006;2023-05-20T05:27:10;102877.91;;;21.96;55.14
13013;BME280;22580;57.670;12.006;2023-05-20T05:29:37;102889.06;;;22.04;54.84
13013;BME280;22580;57.670;12.006;2023-05-20T05:32:04;102889.94;;;22.26;53.88
13013;BME280;22580;57.670;12.006;2023-05-20T05:34:31;102874.16;;;22.29;53.24
13013;BME280;22580;57.670;12.006;2023-05-20T05:36:58;102918.03;;;22.77;53.10
13013;BME280;22580;57.670;12.006;2023-05-20T05:39:27;102918.38;;;22.84;52.41
13013;BME280;22580;57.670;12.006;2023-05-20T05:41:56;102920.75;;;22.77;52.31
13013;BME280;22580;57.670;12.006;2023-05-20T05:44:23;102903.16;;;22.61;53.18
13013;BME280;22580;57.670;12.006;2023-05-20T05:46:50;102925.31;;;23.28;51.83
13013;BME280;22580;57.670;12.006;2023-05-20T05:49:17;102876.50;;;22.64;51.49
13013;BME280;22580;57.670;12.006;2023-05-20T05:51:44;102916.81;;;22.81;53.08
13013;BME280;22580;57.670;12.006;2023-05-20T05:54:12;102887.03;;;22.78;51.95
13013;BME280;22580;57.670;12.006;2023-05-20T05:56:41;102854.97;;;23.70;48.47
13013;BME280;22580;57.670;12.006;2023-05-20T05:59:10;102901.56;;;23.78;48.62
13013;BME280;22580;57.670;12.006;2023-05-20T06:01:39;102886.09;;;23.48;49.29
13013;BME280;22580;57.670;12.006;2023-05-20T06:04:11;102875.91;;;23.50;50.21
13013;BME280;22580;57.670;12.006;2023-05-20T06:06:39;102871.06;;;23.93;48.41
13013;BME280;22580;57.670;12.006;2023-05-20T06:09:07;102910.91;;;23.76;48.76
13013;BME280;22580;57.670;12.006;2023-05-20T06:11:36;102915.03;;;23.61;49.50
13013;BME280;22580;57.670;12.006;2023-05-20T06:14:06;102889.84;;;24.44;47.67
13013;BME280;22580;57.670;12.006;2023-05-20T06:16:33;102870.91;;;24.13;47.67
13013;BME280;22580;57.670;12.006;2023-05-20T06:19:05;102914.66;;;24.70;47.06
13013;BME280;22580;57.670;12.006;2023-05-20T06:21:34;102917.50;;;24.88;46.71
13013;BME280;22580;57.670;12.006;2023-05-20T06:24:03;102853.66;;;24.60;45.91
13013;BME280;22580;57.670;12.006;2023-05-20T06:26:30;102850.81;;;24.89;44.63
13013;BME280;22580;57.670;12.006;2023-05-20T06:28:57;102877.09;;;25.09;44.45
13013;BME280;22580;57.670;12.006;2023-05-20T06:31:27;102863.97;;;24.75;45.03
13013;BME280;22580;57.670;12.006;2023-05-20T06:33:59;102911.13;;;24.50;46.13
13013;BME280;22580;57.670;12.006;2023-05-20T06:36:33;102868.75;;;25.28;43.54
13013;BME280;22580;57.670;12.006;2023-05-20T06:39:00;102871.66;;;25.62;43.04
13013;BME280;22580;57.670;12.006;2023-05-20T06:41:28;102871.16;;;25.94;42.86
13013;BME280;22580;57.670;12.006;2023-05-20T06:43:55;102878.22;;;26.05;41.87
13013;BME280;22580;57.670;12.006;2023-05-20T06:49:16;102861.91;;;25.95;42.46
13013;BME280;22580;57.670;12.006;2023-05-20T06:51:45;102860.13;;;26.12;41.78
13013;BME280;22580;57.670;12.006;2023-05-20T06:54:12;102872.75;;;26.05;42.16
13013;BME280;22580;57.670;12.006;2023-05-20T06:56:39;102899.44;;;26.21;41.98
13013;BME280;22580;57.670;12.006;2023-05-20T06:59:06;102887.97;;;26.43;41.87
13013;BME280;22580;57.670;12.006;2023-05-20T07:01:34;102893.00;;;26.82;40.58
13013;BME280;22580;57.670;12.006;2023-05-20T07:04:03;102854.53;;;25.42;41.88
13013;BME280;22580;57.670;12.006;2023-05-20T07:06:31;102839.31;;;26.01;41.12
13013;BME280;22580;57.670;12.006;2023-05-20T07:09:02;102834.81;;;26.18;40.38
13013;BME280;22580;57.670;12.006;2023-05-20T07:11:29;102872.09;;;26.11;40.93
13013;BME280;22580;57.670;12.006;2023-05-20T07:13:58;102846.22;;;26.57;40.06
13013;BME280;22580;57.670;12.006;2023-05-20T07:16:25;102891.94;;;24.69;42.55
13013;BME280;22580;57.670;12.006;2023-05-20T07:18:56;102880.41;;;24.00;42.92
13013;BME280;22580;57.670;12.006;2023-05-20T07:21:24;102891.53;;;25.01;42.99
13013;BME280;22580;57.670;12.006;2023-05-20T07:23:51;102852.34;;;24.64;43.30
13013;BME280;22580;57.670;12.006;2023-05-20T07:26:20;102864.66;;;25.77;40.33
13013;BME280;22580;57.670;12.006;2023-05-20T07:28:47;102878.41;;;23.63;43.44
13013;BME280;22580;57.670;12.006;2023-05-20T07:31:14;102820.56;;;24.90;40.39
13013;BME280;22580;57.670;12.006;2023-05-20T07:33:41;102835.13;;;24.54;41.53
13013;BME280;22580;57.670;12.006;2023-05-20T07:36:10;102858.66;;;24.74;40.85
13013;BME280;22580;57.670;12.006;2023-05-20T07:38:38;102877.91;;;24.82;40.93
13013;BME280;22580;57.670;12.006;2023-05-20T07:41:06;102846.78;;;25.38;40.52
13013;BME280;22580;57.670;12.006;2023-05-20T07:43:33;102853.44;;;25.53;38.58
13013;BME280;22580;57.670;12.006;2023-05-20T07:46:00;102872.38;;;26.00;37.21
13013;BME280;22580;57.670;12.006;2023-05-20T07:48:27;102866.28;;;24.70;40.74
13013;BME280;22580;57.670;12.006;2023-05-20T07:50:54;102857.00;;;26.85;36.14
13013;BME280;22580;57.670;12.006;2023-05-20T07:53:25;102841.50;;;27.18;35.36
13013;BME280;22580;57.670;12.006;2023-05-20T07:55:52;102859.47;;;26.36;34.58
13013;BME280;22580;57.670;12.006;2023-05-20T07:58:19;102870.97;;;24.50;38.21
13013;BME280;22580;57.670;12.006;2023-05-20T08:00:47;102860.75;;;25.17;37.53
13013;BME280;22580;57.670;12.006;2023-05-20T08:03:14;102847.28;;;25.69;36.25
13013;BME280;22580;57.670;12.006;2023-05-20T08:05:41;102855.19;;;25.90;36.17
13013;BME280;22580;57.670;12.006;2023-05-20T08:08:10;102830.13;;;25.85;36.49
13013;BME280;22580;57.670;12.006;2023-05-20T08:10:40;102814.59;;;26.87;34.82
13013;BME280;22580;57.670;12.006;2023-05-20T08:13:07;102858.59;;;26.61;34.00
13013;BME280;22580;57.670;12.006;2023-05-20T08:15:35;102851.16;;;26.80;33.36
13013;BME280;22580;57.670;12.006;2023-05-20T08:18:04;102847.50;;;26.71;32.83
13013;BME280;22580;57.670;12.006;2023-05-20T08:20:31;102843.97;;;27.37;32.34
13013;BME280;22580;57.670;12.006;2023-05-20T08:22:59;102854.31;;;28.08;31.31
13013;BME280;22580;57.670;12.006;2023-05-20T08:25:26;102811.88;;;27.86;31.69
13013;BME280;22580;57.670;12.006;2023-05-20T08:27:56;102830.56;;;27.42;31.79
13013;BME280;22580;57.670;12.006;2023-05-20T08:30:23;102841.41;;;26.07;33.54
13013;BME280;22580;57.670;12.006;2023-05-20T08:32:50;102819.31;;;27.03;32.86
13013;BME280;22580;57.670;12.006;2023-05-20T08:35:17;102799.66;;;27.24;32.86
13013;BME280;22580;57.670;12.006;2023-05-20T08:37:44;102833.75;;;27.05;32.48
13013;BME280;22580;57.670;12.006;2023-05-20T08:40:19;102830.59;;;26.50;34.58
13013;BME280;22580;57.670;12.006;2023-05-20T08:42:48;102830.78;;;28.22;31.86
13013;BME280;22580;57.670;12.006;2023-05-20T08:45:19;102841.09;;;28.75;31.83
13013;BME280;22580;57.670;12.006;2023-05-20T08:47:50;102835.88;;;28.96;31.23
13013;BME280;22580;57.670;12.006;2023-05-20T08:50:18;102820.44;;;28.07;31.71
13013;BME280;22580;57.670;12.006;2023-05-20T08:52:46;102831.41;;;28.95;30.03
13013;BME280;22580;57.670;12.006;2023-05-20T08:55:15;102828.34;;;28.74;31.26
13013;BME280;22580;57.670;12.006;2023-05-20T08:57:47;102829.59;;;29.11;30.74
13013;BME280;22580;57.670;12.006;2023-05-20T09:00:15;102825.28;;;29.62;29.89
13013;BME280;22580;57.670;12.006;2023-05-20T09:02:44;102822.28;;;29.26;30.29
13013;BME280;22580;57.670;12.006;2023-05-20T09:05:11;102825.00;;;29.94;29.64
13013;BME280;22580;57.670;12.006;2023-05-20T09:07:40;102819.72;;;29.70;29.07
13013;BME280;22580;57.670;12.006;2023-05-20T09:10:08;102825.00;;;29.94;28.71
13013;BME280;22580;57.670;12.006;2023-05-20T09:12:36;102793.16;;;29.92;29.52
13013;BME280;22580;57.670;12.006;2023-05-20T09:15:03;102820.91;;;29.90;28.98
13013;BME280;22580;57.670;12.006;2023-05-20T09:17:31;102782.56;;;29.81;28.53
13013;BME280;22580;57.670;12.006;2023-05-20T09:20:00;102815.19;;;30.15;28.77
13013;BME280;22580;57.670;12.006;2023-05-20T09:22:27;102810.50;;;29.78;29.54
13013;BME280;22580;57.670;12.006;2023-05-20T09:24:54;102807.66;;;30.38;28.57
13013;BME280;22580;57.670;12.006;2023-05-20T09:27:21;102818.16;;;30.28;28.13
13013;BME280;22580;57.670;12.006;2023-05-20T09:29:48;102803.50;;;30.72;27.79
13013;BME280;22580;57.670;12.006;2023-05-20T09:32:16;102815.31;;;30.65;27.49
13013;BME280;22580;57.670;12.006;2023-05-20T09:34:45;102800.06;;;30.70;27.18
13013;BME280;22580;57.670;12.006;2023-05-20T09:37:16;102809.19;;;30.55;27.63
13013;BME280;22580;57.670;12.006;2023-05-20T09:39:51;102813.47;;;30.43;26.84
13013;BME280;22580;57.670;12.006;2023-05-20T09:42:25;102812.34;;;30.23;26.83
13013;BME280;22580;57.670;12.006;2023-05-20T09:44:54;102811.84;;;30.49;26.91
13013;BME280;22580;57.670;12.006;2023-05-20T09:47:23;102798.66;;;29.54;26.39
13013;BME280;22580;57.670;12.006;2023-05-20T09:49:52;102792.94;;;28.32;27.95
13013;BME280;22580;57.670;12.006;2023-05-20T09:52:21;102787.56;;;28.86;27.39
13013;BME280;22580;57.670;12.006;2023-05-20T09:54:50;102743.66;;;29.38;27.29
13013;BME280;22580;57.670;12.006;2023-05-20T09:57:24;102751.16;;;29.67;28.88
13013;BME280;22580;57.670;12.006;2023-05-20T09:59:52;102755.53;;;27.74;33.02
13013;BME280;22580;57.670;12.006;2023-05-20T10:02:19;102780.38;;;28.21;33.50
13013;BME280;22580;57.670;12.006;2023-05-20T10:04:49;102764.00;;;28.75;33.46
13013;BME280;22580;57.670;12.006;2023-05-20T10:07:31;102768.66;;;28.44;34.22
13013;BME280;22580;57.670;12.006;2023-05-20T10:10:13;102806.09;;;29.23;33.53
13013;BME280;22580;57.670;12.006;2023-05-20T10:12:54;102770.69;;;28.50;34.60
13013;BME280;22580;57.670;12.006;2023-05-20T10:15:32;102794.00;;;27.98;35.41
13013;BME280;22580;57.670;12.006;2023-05-20T10:18:09;102779.19;;;28.16;35.69
13013;BME280;22580;57.670;12.006;2023-05-20T10:20:45;102799.47;;;28.70;34.80
13013;BME280;22580;57.670;12.006;2023-05-20T10:23:21;102801.41;;;28.61;35.02
13013;BME280;22580;57.670;12.006;2023-05-20T10:25:51;102752.25;;;27.95;35.32
13013;BME280;22580;57.670;12.006;2023-05-20T10:28:30;102778.50;;;28.14;35.30
13013;BME280;22580;57.670;12.006;2023-05-20T10:30:59;102786.22;;;28.18;34.87
13013;BME280;22580;57.670;12.006;2023-05-20T10:33:28;102793.84;;;27.51;35.89
13013;BME280;22580;57.670;12.006;2023-05-20T10:35:57;102770.00;;;27.60;35.59
13013;BME280;22580;57.670;12.006;2023-05-20T10:38:34;102784.94;;;27.65;36.13
13013;BME280;22580;57.670;12.006;2023-05-20T10:41:07;102792.97;;;27.42;36.45
13013;BME280;22580;57.670;12.006;2023-05-20T10:43:35;102811.34;;;27.50;36.86
13013;BME280;22580;57.670;12.006;2023-05-20T10:46:03;102766.41;;;26.93;37.18
13013;BME280;22580;57.670;12.006;2023-05-20T10:48:31;102785.19;;;27.05;37.42
13013;BME280;22580;57.670;12.006;2023-05-20T10:50:59;102763.81;;;26.75;38.17
13013;BME280;22580;57.670;12.006;2023-05-20T10:53:29;102764.47;;;26.61;38.10
13013;BME280;22580;57.670;12.006;2023-05-20T10:55:58;102791.69;;;26.96;38.42
13013;BME280;22580;57.670;12.006;2023-05-20T10:58:25;102796.06;;;27.31;37.48
13013;BME280;22580;57.670;12.006;2023-05-20T11:00:53;102769.91;;;27.03;38.21
13013;BME280;22580;57.670;12.006;2023-05-20T11:03:21;102759.56;;;26.81;38.58
13013;BME280;22580;57.670;12.006;2023-05-20T11:05:49;102786.59;;;26.67;39.59
13013;BME280;22580;57.670;12.006;2023-05-20T11:08:20;102781.88;;;26.94;39.17
13013;BME280;22580;57.670;12.006;2023-05-20T11:10:47;102782.72;;;26.44;40.20
13013;BME280;22580;57.670;12.006;2023-05-20T11:13:16;102783.47;;;26.54;39.85
13013;BME280;22580;57.670;12.006;2023-05-20T11:15:43;102767.47;;;25.90;41.04
13013;BME280;22580;57.670;12.006;2023-05-20T11:18:10;102787.19;;;26.19;41.20
13013;BME280;22580;57.670;12.006;2023-05-20T11:20:42;102729.06;;;26.41;40.48
13013;BME280;22580;57.670;12.006;2023-05-20T11:23:12;102769.75;;;26.54;40.86
13013;BME280;22580;57.670;12.006;2023-05-20T11:25:39;102782.88;;;26.76;41.22
13013;BME280;22580;57.670;12.006;2023-05-20T11:28:08;102804.31;;;26.89;40.71
13013;BME280;22580;57.670;12.006;2023-05-20T11:30:41;102744.44;;;26.34;40.51
13013;BME280;22580;57.670;12.006;2023-05-20T11:33:11;102777.41;;;26.42;41.12
13013;BME280;22580;57.670;12.006;2023-05-20T11:35:43;102763.56;;;25.92;42.45
13013;BME280;22580;57.670;12.006;2023-05-20T11:38:10;102784.88;;;26.32;41.31
13013;BME280;22580;57.670;12.006;2023-05-20T11:40:42;102755.69;;;27.07;38.61
13013;BME280;22580;57.670;12.006;2023-05-20T11:43:11;102758.28;;;27.50;38.47
13013;BME280;22580;57.670;12.006;2023-05-20T11:45:41;102773.41;;;27.46;38.68
13013;BME280;22580;57.670;12.006;2023-05-20T11:48:09;102777.00;;;27.38;38.64
13013;BME280;22580;57.670;12.006;2023-05-20T11:50:42;102766.75;;;27.64;37.50
13013;BME280;22580;57.670;12.006;2023-05-20T11:53:13;102765.81;;;27.07;38.53
13013;BME280;22580;57.670;12.006;2023-05-20T11:55:48;102741.03;;;26.83;39.39
13013;BME280;22580;57.670;12.006;2023-05-20T11:58:18;102734.59;;;27.16;39.34
13013;BME280;22580;57.670;12.006;2023-05-20T12:00:47;102732.03;;;27.31;39.52
13013;BME280;22580;57.670;12.006;2023-05-20T12:03:15;102719.00;;;26.58;40.72
13013;BME280;22580;57.670;12.006;2023-05-20T12:05:42;102718.97;;;27.41;39.60
13013;BME280;22580;57.670;12.006;2023-05-20T12:08:09;102724.59;;;27.88;39.40
13013;BME280;22580;57.670;12.006;2023-05-20T12:10:39;102713.88;;;26.63;42.21
13013;BME280;22580;57.670;12.006;2023-05-20T12:13:07;102694.41;;;27.07;41.16
13013;BME280;22580;57.670;12.006;2023-05-20T12:15:38;102693.91;;;27.68;40.54
13013;BME280;22580;57.670;12.006;2023-05-20T12:18:08;102733.16;;;28.01;40.54
13013;BME280;22580;57.670;12.006;2023-05-20T12:20:35;102688.78;;;27.33;41.64
13013;BME280;22580;57.670;12.006;2023-05-20T12:23:02;102687.97;;;28.04;39.74
13013;BME280;22580;57.670;12.006;2023-05-20T12:25:32;102723.34;;;28.23;39.93
13013;BME280;22580;57.670;12.006;2023-05-20T12:28:01;102732.88;;;28.44;39.78
13013;BME280;22580;57.670;12.006;2023-05-20T12:30:38;102727.41;;;28.66;39.49
13013;BME280;22580;57.670;12.006;2023-05-20T12:33:05;102703.28;;;28.77;38.51
13013;BME280;22580;57.670;12.006;2023-05-20T12:35:39;102728.78;;;28.39;37.73
13013;BME280;22580;57.670;12.006;2023-05-20T12:38:06;102714.03;;;27.61;39.24
13013;BME280;22580;57.670;12.006;2023-05-20T12:40:34;102733.75;;;27.72;39.32
13013;BME280;22580;57.670;12.006;2023-05-20T12:43:02;102729.84;;;28.30;38.64
13013;BME280;22580;57.670;12.006;2023-05-20T12:45:29;102701.25;;;27.76;38.79
13013;BME280;22580;57.670;12.006;2023-05-20T12:47:56;102703.84;;;29.41;35.47
13013;BME280;22580;57.670;12.006;2023-05-20T12:50:24;102702.25;;;29.98;34.13
13013;BME280;22580;57.670;12.006;2023-05-20T12:52:52;102674.59;;;30.07;33.44